createdAt,value
2024-05-09T00:00:29.652Z,100133.69
2024-05-09T00:04:49.496Z,100134.27
2024-05-09T00:08:47.415Z,100131.80
2024-05-09T00:12:45.481Z,100132.28
2024-05-09T00:16:43.429Z,100125.20
2024-05-09T00:20:41.655Z,100119.20
2024-05-09T00:24:38.385Z,100116.88
2024-05-09T00:28:35.387Z,100116.73
2024-05-09T00:32:33.582Z,100124.76
2024-05-09T00:36:30.375Z,100127.19
2024-05-09T00:40:35.676Z,100129.95
2024-05-09T00:44:37.437Z,100128.80
2024-05-09T00:48:35.482Z,100127.55
2024-05-09T00:52:33.398Z,100130.61
2024-05-09T00:56:31.479Z,100131.25
2024-05-09T01:00:36.001Z,100123.98
2024-05-09T01:04:37.384Z,100126.92
2024-05-09T01:08:34.391Z,100125.73
2024-05-09T01:12:32.412Z,100125.13
2024-05-09T01:16:29.636Z,100123.30
2024-05-09T01:20:36.821Z,100121.23
2024-05-09T01:24:39.343Z,100117.27
2024-05-09T01:28:37.315Z,100115.27
2024-05-09T01:32:35.501Z,100113.94
2024-05-09T01:36:33.322Z,100116.33
2024-05-09T01:40:38.319Z,100114.99
2024-05-09T01:44:36.374Z,100118.58
2024-05-09T01:48:33.412Z,100123.94
2024-05-09T01:52:30.280Z,100125.58
2024-05-09T01:56:28.407Z,100122.34
2024-05-09T02:00:34.427Z,100124.51
2024-05-09T02:04:37.403Z,100122.94
2024-05-09T02:08:34.499Z,100124.65
2024-05-09T02:12:32.353Z,100126.44
2024-05-09T02:16:29.284Z,100125.70
2024-05-09T02:20:33.777Z,100128.21
2024-05-09T02:24:34.263Z,100126.94
2024-05-09T02:28:31.283Z,100130.25
2024-05-09T02:32:29.409Z,100132.69
2024-05-09T02:36:26.244Z,100130.19
2024-05-09T02:40:33.018Z,100134.70
2024-05-09T02:44:33.325Z,100135.56
2024-05-09T02:48:31.479Z,100135.56
2024-05-09T02:52:32.234Z,100134.52
2024-05-09T02:56:29.293Z,100145.00
2024-05-09T03:00:35.256Z,100144.10
2024-05-09T03:04:36.322Z,100142.45
2024-05-09T03:08:34.358Z,100141.97
2024-05-09T03:12:31.259Z,100143.13
2024-05-09T03:16:29.209Z,100145.43
2024-05-09T03:20:32.569Z,100143.32
2024-05-09T03:24:32.256Z,100147.81
2024-05-09T03:28:30.183Z,100145.77
2024-05-09T03:32:28.364Z,100142.25
2024-05-09T03:36:26.204Z,100143.59
2024-05-09T03:40:26.827Z,100146.67
2024-05-09T03:44:28.379Z,100149.33
2024-05-09T03:48:25.317Z,100148.09
2024-05-09T03:52:22.156Z,100146.03
2024-05-09T03:56:22.154Z,100139.77
2024-05-09T04:00:30.078Z,100136.31
2024-05-09T04:04:33.250Z,100139.73
2024-05-09T04:08:30.236Z,100140.27
2024-05-09T04:12:28.188Z,100143.73
2024-05-09T04:16:26.141Z,100147.25
2024-05-09T04:20:33.577Z,100159.05
2024-05-09T04:24:36.131Z,100161.08
2024-05-09T04:28:34.306Z,100158.73
2024-05-09T04:32:32.221Z,100158.09
2024-05-09T04:36:29.140Z,100156.64
2024-05-09T04:40:33.046Z,100152.61
2024-05-09T04:44:33.138Z,100157.19
2024-05-09T04:48:31.353Z,100158.43
2024-05-09T04:52:28.142Z,100164.34
2024-05-09T04:56:25.186Z,100162.17
2024-05-09T05:00:32.335Z,100161.27
2024-05-09T05:04:33.138Z,100162.27
2024-05-09T05:08:32.197Z,100170.44
2024-05-09T05:12:49.126Z,100175.05
2024-05-09T05:16:47.115Z,100174.95
2024-05-09T05:20:44.307Z,100177.89
2024-05-09T05:24:42.076Z,100174.31
2024-05-09T05:28:40.089Z,100179.90
2024-05-09T05:32:18.448Z,100173.02
2024-05-09T05:35:42.774Z,100171.81
2024-05-09T05:39:06.412Z,100168.84
2024-05-09T05:42:29.889Z,100165.48
2024-05-09T05:45:53.455Z,100163.60
2024-05-09T05:49:17.132Z,100166.25
2024-05-09T05:52:41.085Z,100165.58
2024-05-09T05:56:05.412Z,100168.22
2024-05-09T05:59:29.343Z,100170.78
2024-05-09T06:02:53.505Z,100171.27
2024-05-09T06:06:17.119Z,100169.48
2024-05-09T06:09:40.672Z,100173.23
2024-05-09T06:13:04.246Z,100176.89
2024-05-09T06:16:27.802Z,100172.77
2024-05-09T06:19:51.656Z,100167.38
2024-05-09T06:23:15.290Z,100171.17
2024-05-09T06:26:43.001Z,100168.77
2024-05-09T06:30:09.940Z,100169.68
2024-05-09T06:33:36.038Z,100171.06
2024-05-09T06:36:59.606Z,100170.60
2024-05-09T06:40:29.222Z,100168.31
2024-05-09T06:43:57.861Z,100165.23
2024-05-09T06:47:21.781Z,100163.20
2024-05-09T06:50:46.086Z,100162.92
2024-05-09T06:54:09.802Z,100163.79
2024-05-09T06:57:33.271Z,100164.15
2024-05-09T07:00:56.902Z,100167.06
2024-05-09T07:04:20.412Z,100169.15
2024-05-09T07:07:44.029Z,100170.13
2024-05-09T07:11:07.556Z,100174.02
2024-05-09T07:14:31.959Z,100171.34
2024-05-09T07:17:56.564Z,100172.56
2024-05-09T07:21:24.667Z,100173.94
2024-05-09T07:24:48.264Z,100167.90
2024-05-09T07:28:14.088Z,100168.27
2024-05-09T07:31:37.622Z,100167.23
2024-05-09T07:35:01.414Z,100168.67
2024-05-09T07:38:24.996Z,100164.20
2024-05-09T07:41:51.168Z,100162.27
2024-05-09T07:45:30.021Z,100161.52
2024-05-09T07:50:35.803Z,100162.84
2024-05-09T07:53:34.305Z,100162.70
2024-05-09T07:56:26.843Z,100160.00
2024-05-09T07:59:52.128Z,100159.66
2024-05-09T08:03:15.705Z,100158.80
2024-05-09T08:06:39.259Z,100161.16
2024-05-09T08:10:02.796Z,100158.64
2024-05-09T08:13:26.807Z,100159.80
2024-05-09T08:16:50.234Z,100155.65
2024-05-09T08:20:22.480Z,100159.85
2024-05-09T08:23:50.587Z,100156.59
2024-05-09T08:27:15.149Z,100156.13
2024-05-09T08:30:38.900Z,100158.55
2024-05-09T08:34:03.147Z,100151.79
2024-05-09T08:37:31.057Z,100152.98
2024-05-09T08:40:58.602Z,100152.58
2024-05-09T08:44:23.146Z,100158.97
2024-05-09T08:47:47.226Z,100148.77
2024-05-09T08:51:10.704Z,100150.02
2024-05-09T08:54:34.800Z,100155.77
2024-05-09T08:57:59.934Z,100157.08
2024-05-09T09:01:24.519Z,100149.89
2024-05-09T09:05:02.766Z,100154.02
2024-05-09T09:08:27.285Z,100150.36
2024-05-09T09:11:50.904Z,100145.36
2024-05-09T09:15:14.647Z,100146.83
2024-05-09T09:18:38.744Z,100147.00
2024-05-09T09:22:02.530Z,100144.05
2024-05-09T09:25:26.127Z,100143.24
2024-05-09T09:28:49.931Z,100143.31
2024-05-09T09:32:13.416Z,100140.70
2024-05-09T09:35:37.149Z,100140.23
2024-05-09T09:39:01.267Z,100144.49
2024-05-09T09:42:29.932Z,100144.67
2024-05-09T09:45:55.060Z,100144.84
2024-05-09T09:49:19.899Z,100142.80
2024-05-09T09:52:43.794Z,100140.50
2024-05-09T09:56:08.648Z,100139.14
2024-05-09T09:59:35.692Z,100138.70
2024-05-09T10:02:59.410Z,100138.72
2024-05-09T10:06:24.374Z,100134.15
2024-05-09T10:09:47.958Z,100130.23
2024-05-09T10:13:11.577Z,100131.13
2024-05-09T10:16:35.684Z,100128.32
2024-05-09T10:20:14.467Z,100127.46
2024-05-09T10:23:56.801Z,100128.98
2024-05-09T10:27:28.297Z,100132.36
2024-05-09T10:31:02.525Z,100124.80
2024-05-09T10:34:34.211Z,100129.58
2024-05-09T10:37:58.425Z,100130.02
2024-05-09T10:41:24.320Z,100123.45
2024-05-09T10:44:47.946Z,100121.20
2024-05-09T10:48:12.440Z,100116.91
2024-05-09T10:51:39.280Z,100112.14
2024-05-09T10:55:05.483Z,100111.25
2024-05-09T10:58:29.635Z,100106.34
2024-05-09T11:01:53.417Z,100103.86
2024-05-09T11:05:17.392Z,100105.10
2024-05-09T11:08:42.293Z,100098.77
2024-05-09T11:12:06.882Z,100096.06
2024-05-09T11:15:43.394Z,100092.11
2024-05-09T11:19:13.872Z,100089.31
2024-05-09T11:22:37.680Z,100085.55
2024-05-09T11:26:01.147Z,100085.99
2024-05-09T11:29:37.424Z,100086.23
2024-05-09T11:33:01.307Z,100083.87
2024-05-09T11:36:25.270Z,100083.70
2024-05-09T11:39:49.046Z,100078.42
2024-05-09T11:43:12.672Z,100078.36
2024-05-09T11:46:36.273Z,100078.23
2024-05-09T11:50:00.032Z,100078.50
2024-05-09T11:53:23.699Z,100074.59
2024-05-09T11:56:47.437Z,100071.91
2024-05-09T12:00:15.021Z,100073.79
2024-05-09T12:03:41.652Z,100072.14
2024-05-09T12:07:05.414Z,100075.80
2024-05-09T12:10:33.792Z,100075.64
2024-05-09T12:13:59.179Z,100075.91
2024-05-09T12:17:22.763Z,100076.91
2024-05-09T12:20:46.597Z,100076.20
2024-05-09T12:24:10.225Z,100070.41
2024-05-09T12:27:36.169Z,100071.61
2024-05-09T12:30:59.701Z,100066.23
2024-05-09T12:34:23.274Z,100059.15
2024-05-09T12:37:46.840Z,100061.98
2024-05-09T12:41:10.921Z,100057.69
2024-05-09T12:44:34.443Z,100054.88
2024-05-09T12:47:58.106Z,100053.28
2024-05-09T12:51:21.742Z,100050.77
2024-05-09T12:54:45.210Z,100044.84
2024-05-09T12:58:09.189Z,100044.38
2024-05-09T13:01:32.849Z,100041.44
2024-05-09T13:04:56.882Z,100037.86
2024-05-09T13:08:20.713Z,100037.77
2024-05-09T13:11:44.286Z,100034.64
2024-05-09T13:15:08.107Z,100030.02
2024-05-09T13:18:33.228Z,100023.02
2024-05-09T13:21:57.265Z,100017.96
2024-05-09T13:25:21.308Z,100013.64
2024-05-09T13:28:44.896Z,100010.08
2024-05-09T13:32:08.514Z,100001.31
2024-05-09T13:35:34.101Z,99998.60
2024-05-09T13:38:59.057Z,99998.40
2024-05-09T13:42:22.620Z,99996.63
2024-05-09T13:45:46.299Z,99992.09
2024-05-09T13:49:12.494Z,99989.65
2024-05-09T13:52:36.394Z,99988.88
2024-05-09T13:55:59.937Z,99987.70
2024-05-09T13:59:23.692Z,99983.33
2024-05-09T14:02:47.218Z,99981.92
2024-05-09T14:06:13.157Z,99976.91
2024-05-09T14:09:37.592Z,99974.89
2024-05-09T14:13:01.647Z,99969.98
2024-05-09T14:16:25.495Z,99970.77
2024-05-09T14:19:49.123Z,99964.17
2024-05-09T14:23:12.682Z,99962.66
2024-05-09T14:26:36.616Z,99961.55
2024-05-09T14:30:00.029Z,99959.37
2024-05-09T14:33:26.685Z,99964.58
2024-05-09T14:36:50.789Z,99959.77
2024-05-09T14:40:30.310Z,99957.95
2024-05-09T14:43:59.046Z,99958.22
2024-05-09T14:47:22.611Z,99950.50
2024-05-09T14:50:46.253Z,99948.52
2024-05-09T14:54:09.743Z,99947.89
2024-05-09T14:57:33.317Z,99949.84
2024-05-09T15:00:57.189Z,99946.02
2024-05-09T15:04:20.887Z,99941.20
2024-05-09T15:07:45.194Z,99936.60
2024-05-09T15:11:08.862Z,99934.14
2024-05-09T15:14:32.655Z,99931.55
2024-05-09T15:17:56.491Z,99920.03
2024-05-09T15:21:20.050Z,99917.59
2024-05-09T15:24:46.258Z,99919.85
2024-05-09T15:28:10.366Z,99922.45
2024-05-09T15:31:34.027Z,99917.23
2024-05-09T15:34:57.674Z,99906.38
2024-05-09T15:38:21.513Z,99910.77
2024-05-09T15:41:45.043Z,99912.17
2024-05-09T15:45:09.521Z,99904.56
2024-05-09T15:48:33.537Z,99907.45
2024-05-09T15:51:57.203Z,99898.89
2024-05-09T15:55:20.915Z,99902.45
2024-05-09T15:58:46.235Z,99900.83
2024-05-09T16:02:11.382Z,99902.02
2024-05-09T16:05:35.398Z,99899.84
2024-05-09T16:08:59.776Z,99899.73
2024-05-09T16:12:23.275Z,99899.70
2024-05-09T16:15:46.939Z,99896.33
2024-05-09T16:19:10.958Z,99898.89
2024-05-09T16:22:34.690Z,99898.10
2024-05-09T16:25:58.445Z,99898.95
2024-05-09T16:29:21.973Z,99897.33
2024-05-09T16:32:48.511Z,99897.05
2024-05-09T16:36:12.142Z,99899.02
2024-05-09T16:39:36.620Z,99891.30
2024-05-09T16:43:00.916Z,99893.52
2024-05-09T16:46:25.545Z,99892.58
2024-05-09T16:49:49.297Z,99889.86
2024-05-09T16:53:13.533Z,99890.09
2024-05-09T16:56:37.132Z,99890.48
2024-05-09T17:00:00.581Z,99893.16
2024-05-09T17:03:24.393Z,99894.85
2024-05-09T17:06:48.084Z,99891.14
2024-05-09T17:10:19.382Z,99891.91
2024-05-09T17:13:49.962Z,99893.66
2024-05-09T17:17:13.950Z,99890.98
2024-05-09T17:20:38.221Z,99890.33
2024-05-09T17:24:02.222Z,99892.67
2024-05-09T17:27:26.242Z,99891.33
2024-05-09T17:30:51.003Z,99886.52
2024-05-09T17:34:15.182Z,99884.52
2024-05-09T17:37:39.269Z,99886.16
2024-05-09T17:41:03.447Z,99881.79
2024-05-09T17:44:27.931Z,99879.93
2024-05-09T17:47:52.047Z,99879.59
2024-05-09T17:51:15.892Z,99879.33
2024-05-09T17:54:39.874Z,99880.92
2024-05-09T17:58:05.867Z,99875.77
2024-05-09T18:01:30.284Z,99878.04
2024-05-09T18:04:54.847Z,99877.48
2024-05-09T18:08:18.834Z,99878.17
2024-05-09T18:11:42.423Z,99887.22
2024-05-09T18:15:06.630Z,99887.80
2024-05-09T18:18:30.482Z,99889.84
2024-05-09T18:21:54.347Z,99891.34
2024-05-09T18:25:18.308Z,99896.64
2024-05-09T18:28:43.402Z,99904.23
2024-05-09T18:32:08.024Z,99906.70
2024-05-09T18:35:31.631Z,99910.64
2024-05-09T18:38:55.486Z,99907.84
2024-05-09T18:42:19.182Z,99916.02
2024-05-09T18:45:42.974Z,99916.65
2024-05-09T18:49:06.618Z,99925.41
2024-05-09T18:52:30.440Z,99930.35
2024-05-09T18:55:53.973Z,99934.36
2024-05-09T18:59:17.440Z,99938.27
2024-05-09T19:02:41.070Z,99938.42
2024-05-09T19:06:05.350Z,99944.54
2024-05-09T19:09:29.351Z,99945.75
2024-05-09T19:12:52.997Z,99944.98
2024-05-09T19:16:16.800Z,99944.19
2024-05-09T19:19:40.316Z,99944.93
2024-05-09T19:23:04.810Z,99943.75
2024-05-09T19:26:28.777Z,99948.58
2024-05-09T19:29:54.021Z,99953.20
2024-05-09T19:33:19.111Z,99960.14
2024-05-09T19:36:42.895Z,99965.71
2024-05-09T19:40:12.460Z,99964.24
2024-05-09T19:43:41.614Z,99963.93
2024-05-09T19:47:05.313Z,99963.30
2024-05-09T19:50:37.187Z,99964.59
2024-05-09T19:54:05.886Z,99965.16
2024-05-09T19:57:29.326Z,99967.35
2024-05-09T20:00:52.902Z,99966.13
2024-05-09T20:04:16.687Z,99970.17
2024-05-09T20:07:41.788Z,99971.23
2024-05-09T20:11:05.529Z,99967.38
2024-05-09T20:14:29.107Z,99970.44
2024-05-09T20:17:53.731Z,99973.38
2024-05-09T20:21:17.776Z,99974.48
2024-05-09T20:24:41.506Z,99971.17
2024-05-09T20:28:06.243Z,99970.98
2024-05-09T20:31:30.299Z,99970.33
2024-05-09T20:34:53.894Z,99972.11
2024-05-09T20:38:17.461Z,99969.38
2024-05-09T20:41:44.364Z,99969.70
2024-05-09T20:45:08.028Z,99969.00
2024-05-09T20:48:31.689Z,99967.46
2024-05-09T20:51:55.335Z,99965.92
2024-05-09T20:55:18.952Z,99963.50
2024-05-09T20:58:42.457Z,99957.83
2024-05-09T21:02:06.281Z,99954.19
2024-05-09T21:05:29.921Z,99957.14
2024-05-09T21:08:53.823Z,99957.69
2024-05-09T21:12:19.692Z,99958.95
2024-05-09T21:15:43.482Z,99958.40
2024-05-09T21:19:07.274Z,99957.41
2024-05-09T21:22:30.948Z,99955.23
2024-05-09T21:25:54.461Z,99953.06
2024-05-09T21:29:18.087Z,99954.21
2024-05-09T21:32:41.682Z,99952.20
2024-05-09T21:36:05.599Z,99955.08
2024-05-09T21:39:30.040Z,99952.95
2024-05-09T21:42:53.885Z,99954.39
2024-05-09T21:46:17.452Z,99959.33
2024-05-09T21:49:41.110Z,99959.73
2024-05-09T21:53:04.881Z,99959.95
2024-05-09T21:56:28.381Z,99960.88
2024-05-09T21:59:51.911Z,99961.76
2024-05-09T22:04:56.699Z,99963.77
2024-05-09T22:08:20.338Z,99960.90
2024-05-09T22:11:43.849Z,99960.50
2024-05-09T22:15:07.391Z,99961.35
2024-05-09T22:18:31.045Z,99963.04
2024-05-09T22:21:55.280Z,99965.10
2024-05-09T22:25:18.951Z,99965.58
2024-05-09T22:28:43.446Z,99961.81
2024-05-09T22:32:07.297Z,99959.38
2024-05-09T22:35:30.743Z,99962.38
2024-05-09T22:38:54.246Z,99964.23
2024-05-09T22:42:17.999Z,99963.24
2024-05-09T22:45:41.735Z,99955.14
2024-05-09T22:49:06.782Z,99957.25
2024-05-09T22:52:30.442Z,99957.21
2024-05-09T22:55:54.190Z,99950.84
2024-05-09T22:59:17.794Z,99948.61
2024-05-09T23:02:42.181Z,99949.23
2024-05-09T23:06:08.211Z,99947.13
2024-05-09T23:09:31.627Z,99944.11
2024-05-09T23:12:55.661Z,99942.56
2024-05-09T23:16:19.341Z,99940.20
2024-05-09T23:19:43.091Z,99940.34
2024-05-09T23:23:07.726Z,99941.76
2024-05-09T23:26:31.200Z,99940.18
2024-05-09T23:29:54.783Z,99934.27
2024-05-09T23:33:18.458Z,99936.35
2024-05-09T23:36:42.150Z,99932.42
2024-05-09T23:40:07.276Z,99932.55
2024-05-09T23:43:33.459Z,99929.79
2024-05-09T23:46:57.039Z,99929.58
2024-05-09T23:50:26.762Z,99930.77
2024-05-09T23:53:57.246Z,99925.42
2024-05-09T23:57:21.039Z,99924.66
